sensor_id;sensor_type;location;lat;lon;timestamp;temperature;humidity
15103;DHT22;7652;53.584;9.998;2023-05-07T00:02:59;10.20;99.90
15103;DHT22;7652;53.584;9.998;2023-05-07T00:06:21;10.10;99.90
15103;DHT22;7652;53.584;9.998;2023-05-07T00:09:43;10.10;99.90
15103;DHT22;7652;53.584;9.998;2023-05-07T00:13:06;10.10;99.90
15103;DHT22;7652;53.584;9.998;2023-05-07T00:16:28;10.10;99.90
15103;DHT22;7652;53.584;9.998;2023-05-07T00:19:49;10.10;99.90
15103;DHT22;7652;53.584;9.998;2023-05-07T00:23:11;10.10;99.90
15103;DHT22;7652;53.584;9.998;2023-05-07T00:26:32;10.00;99.90
15103;DHT22;7652;53.584;9.998;2023-05-07T00:29:55;10.00;99.90
15103;DHT22;7652;53.584;9.998;2023-05-07T00:33:16;9.90;99.90
15103;DHT22;7652;53.584;9.998;2023-05-07T00:36:37;10.00;99.90
15103;DHT22;7652;53.584;9.998;2023-05-07T00:39:59;10.10;99.90
15103;DHT22;7652;53.584;9.998;2023-05-07T00:43:20;10.10;99.90
15103;DHT22;7652;53.584;9.998;2023-05-07T00:46:44;10.10;99.90
15103;DHT22;7652;53.584;9.998;2023-05-07T00:50:09;10.10;99.90
15103;DHT22;7652;53.584;9.998;2023-05-07T00:53:32;10.10;99.90
15103;DHT22;7652;53.584;9.998;2023-05-07T00:56:55;10.10;99.90
15103;DHT22;7652;53.584;9.998;2023-05-07T01:00:18;10.10;99.90
15103;DHT22;7652;53.584;9.998;2023-05-07T01:03:41;10.10;99.90
15103;DHT22;7652;53.584;9.998;2023-05-07T01:07:04;10.10;99.90
15103;DHT22;7652;53.584;9.998;2023-05-07T01:10:26;10.10;99.90
15103;DHT22;7652;53.584;9.998;2023-05-07T01:13:50;10.10;99.90
15103;DHT22;7652;53.584;9.998;2023-05-07T01:17:12;10.10;99.90
15103;DHT22;7652;53.584;9.998;2023-05-07T01:20:35;10.10;99.90
15103;DHT22;7652;53.584;9.998;2023-05-07T01:23:58;10.10;99.90
15103;DHT22;7652;53.584;9.998;2023-05-07T01:27:20;10.10;99.90
15103;DHT22;7652;53.584;9.998;2023-05-07T01:30:42;10.10;99.90
15103;DHT22;7652;53.584;9.998;2023-05-07T01:34:05;10.10;99.90
15103;DHT22;7652;53.584;9.998;2023-05-07T01:37:28;10.10;99.90
15103;DHT22;7652;53.584;9.998;2023-05-07T01:40:51;10.10;99.90
15103;DHT22;7652;53.584;9.998;2023-05-07T01:44:13;10.10;99.90
15103;DHT22;7652;53.584;9.998;2023-05-07T01:47:36;10.10;99.90
15103;DHT22;7652;53.584;9.998;2023-05-07T01:50:58;10.10;99.90
15103;DHT22;7652;53.584;9.998;2023-05-07T01:54:25;10.00;99.90
15103;DHT22;7652;53.584;9.998;2023-05-07T01:57:49;9.90;99.90
15103;DHT22;7652;53.584;9.998;2023-05-07T02:01:10;10.00;99.90
15103;DHT22;7652;53.584;9.998;2023-05-07T02:04:31;10.00;99.90
15103;DHT22;7652;53.584;9.998;2023-05-07T02:07:53;10.10;99.90
15103;DHT22;7652;53.584;9.998;2023-05-07T02:11:15;10.10;99.90
15103;DHT22;7652;53.584;9.998;2023-05-07T02:14:37;10.00;99.90
15103;DHT22;7652;53.584;9.998;2023-05-07T02:18:00;10.00;99.90
15103;DHT22;7652;53.584;9.998;2023-05-07T02:21:22;10.10;99.90
15103;DHT22;7652;53.584;9.998;2023-05-07T02:24:43;10.00;99.90
15103;DHT22;7652;53.584;9.998;2023-05-07T02:28:05;10.00;99.90
15103;DHT22;7652;53.584;9.998;2023-05-07T02:31:27;10.00;99.90
15103;DHT22;7652;53.584;9.998;2023-05-07T02:34:50;10.00;99.90
15103;DHT22;7652;53.584;9.998;2023-05-07T02:38:12;10.00;99.90
15103;DHT22;7652;53.584;9.998;2023-05-07T02:41:34;10.00;99.90
15103;DHT22;7652;53.584;9.998;2023-05-07T02:44:55;10.00;99.90
15103;DHT22;7652;53.584;9.998;2023-05-07T02:48:18;10.00;99.90
15103;DHT22;7652;53.584;9.998;2023-05-07T02:51:39;10.00;99.90
15103;DHT22;7652;53.584;9.998;2023-05-07T02:55:00;10.10;99.90
15103;DHT22;7652;53.584;9.998;2023-05-07T02:58:22;10.00;99.90
15103;DHT22;7652;53.584;9.998;2023-05-07T03:01:44;10.00;99.90
15103;DHT22;7652;53.584;9.998;2023-05-07T03:05:07;9.90;99.90
15103;DHT22;7652;53.584;9.998;2023-05-07T03:08:30;10.00;99.90
15103;DHT22;7652;53.584;9.998;2023-05-07T03:11:51;10.00;99.90
15103;DHT22;7652;53.584;9.998;2023-05-07T03:15:13;10.00;99.90
15103;DHT22;7652;53.584;9.998;2023-05-07T03:18:34;9.90;99.90
15103;DHT22;7652;53.584;9.998;2023-05-07T03:21:57;9.90;99.90
15103;DHT22;7652;53.584;9.998;2023-05-07T03:25:19;10.00;99.90
15103;DHT22;7652;53.584;9.998;2023-05-07T03:28:41;9.90;99.90
15103;DHT22;7652;53.584;9.998;2023-05-07T03:32:02;10.00;99.90
15103;DHT22;7652;53.584;9.998;2023-05-07T03:35:23;9.90;99.90
15103;DHT22;7652;53.584;9.998;2023-05-07T03:38:46;9.90;99.90
15103;DHT22;7652;53.584;9.998;2023-05-07T03:42:08;9.90;99.90
15103;DHT22;7652;53.584;9.998;2023-05-07T03:45:29;9.90;99.90
15103;DHT22;7652;53.584;9.998;2023-05-07T03:48:51;9.90;99.90
15103;DHT22;7652;53.584;9.998;2023-05-07T03:52:12;10.00;99.90
15103;DHT22;7652;53.584;9.998;2023-05-07T03:55:35;10.00;99.90
15103;DHT22;7652;53.584;9.998;2023-05-07T03:58:57;10.00;99.90
15103;DHT22;7652;53.584;9.998;2023-05-07T04:02:18;10.00;99.90
15103;DHT22;7652;53.584;9.998;2023-05-07T04:05:40;10.00;99.90
15103;DHT22;7652;53.584;9.998;2023-05-07T04:09:02;10.00;99.90
15103;DHT22;7652;53.584;9.998;2023-05-07T04:12:25;10.00;99.90
15103;DHT22;7652;53.584;9.998;2023-05-07T04:15:46;10.10;99.90
15103;DHT22;7652;53.584;9.998;2023-05-07T04:19:09;10.00;99.90
15103;DHT22;7652;53.584;9.998;2023-05-07T04:22:30;10.20;99.90
15103;DHT22;7652;53.584;9.998;2023-05-07T04:25:52;10.10;99.90
15103;DHT22;7652;53.584;9.998;2023-05-07T04:29:16;10.10;99.90
15103;DHT22;7652;53.584;9.998;2023-05-07T04:32:37;10.10;99.90
15103;DHT22;7652;53.584;9.998;2023-05-07T04:36:01;10.10;99.90
15103;DHT22;7652;53.584;9.998;2023-05-07T04:39:24;10.10;99.90
15103;DHT22;7652;53.584;9.998;2023-05-07T04:42:45;10.10;99.90
15103;DHT22;7652;53.584;9.998;2023-05-07T04:46:08;10.10;99.90
15103;DHT22;7652;53.584;9.998;2023-05-07T04:49:30;10.10;99.90
15103;DHT22;7652;53.584;9.998;2023-05-07T04:52:51;10.10;99.90
15103;DHT22;7652;53.584;9.998;2023-05-07T04:56:13;10.10;99.90
15103;DHT22;7652;53.584;9.998;2023-05-07T04:59:34;10.10;99.90
15103;DHT22;7652;53.584;9.998;2023-05-07T05:02:57;10.10;99.90
15103;DHT22;7652;53.584;9.998;2023-05-07T05:06:19;10.10;99.90
15103;DHT22;7652;53.584;9.998;2023-05-07T05:09:40;10.10;99.90
15103;DHT22;7652;53.584;9.998;2023-05-07T05:13:01;10.20;99.90
15103;DHT22;7652;53.584;9.998;2023-05-07T05:16:23;10.00;99.90
15103;DHT22;7652;53.584;9.998;2023-05-07T05:20:10;10.10;99.90
15103;DHT22;7652;53.584;9.998;2023-05-07T05:23:47;10.20;99.90
15103;DHT22;7652;53.584;9.998;2023-05-07T05:27:08;10.20;99.90
15103;DHT22;7652;53.584;9.998;2023-05-07T05:30:30;10.20;99.90
15103;DHT22;7652;53.584;9.998;2023-05-07T05:33:51;10.20;99.90
15103;DHT22;7652;53.584;9.998;2023-05-07T05:37:14;10.20;99.90
15103;DHT22;7652;53.584;9.998;2023-05-07T05:40:35;10.20;99.90
15103;DHT22;7652;53.584;9.998;2023-05-07T05:43:57;10.20;99.90
15103;DHT22;7652;53.584;9.998;2023-05-07T05:47:19;10.30;99.90
15103;DHT22;7652;53.584;9.998;2023-05-07T05:50:41;10.30;99.90
15103;DHT22;7652;53.584;9.998;2023-05-07T05:54:04;10.40;99.90
15103;DHT22;7652;53.584;9.998;2023-05-07T05:57:26;10.30;99.90
15103;DHT22;7652;53.584;9.998;2023-05-07T06:00:48;10.40;99.90
15103;DHT22;7652;53.584;9.998;2023-05-07T06:04:12;10.40;99.90
15103;DHT22;7652;53.584;9.998;2023-05-07T06:07:34;10.40;99.90
15103;DHT22;7652;53.584;9.998;2023-05-07T06:10:57;10.40;99.90
15103;DHT22;7652;53.584;9.998;2023-05-07T06:14:19;10.40;99.90
15103;DHT22;7652;53.584;9.998;2023-05-07T06:17:41;10.40;99.90
15103;DHT22;7652;53.584;9.998;2023-05-07T06:21:02;10.50;99.90
15103;DHT22;7652;53.584;9.998;2023-05-07T06:24:24;10.50;99.90
15103;DHT22;7652;53.584;9.998;2023-05-07T06:27:47;10.50;99.90
15103;DHT22;7652;53.584;9.998;2023-05-07T06:31:12;10.50;99.90
15103;DHT22;7652;53.584;9.998;2023-05-07T06:34:34;10.50;99.90
15103;DHT22;7652;53.584;9.998;2023-05-07T06:37:55;10.50;99.90
15103;DHT22;7652;53.584;9.998;2023-05-07T06:41:17;10.50;99.90
15103;DHT22;7652;53.584;9.998;2023-05-07T06:44:39;10.60;99.90
15103;DHT22;7652;53.584;9.998;2023-05-07T06:48:01;10.60;99.90
15103;DHT22;7652;53.584;9.998;2023-05-07T06:51:22;10.60;99.90
15103;DHT22;7652;53.584;9.998;2023-05-07T06:54:44;10.60;99.90
15103;DHT22;7652;53.584;9.998;2023-05-07T06:58:06;10.60;99.90
15103;DHT22;7652;53.584;9.998;2023-05-07T07:01:28;10.60;99.90
15103;DHT22;7652;53.584;9.998;2023-05-07T07:04:50;10.70;99.90
15103;DHT22;7652;53.584;9.998;2023-05-07T07:08:11;10.70;99.90
15103;DHT22;7652;53.584;9.998;2023-05-07T07:11:32;10.80;99.90
15103;DHT22;7652;53.584;9.998;2023-05-07T07:14:54;10.90;99.90
15103;DHT22;7652;53.584;9.998;2023-05-07T07:18:16;10.90;99.90
15103;DHT22;7652;53.584;9.998;2023-05-07T07:21:38;10.90;99.90
15103;DHT22;7652;53.584;9.998;2023-05-07T07:24:59;11.00;99.90
15103;DHT22;7652;53.584;9.998;2023-05-07T07:28:21;11.00;99.90
15103;DHT22;7652;53.584;9.998;2023-05-07T07:31:42;11.00;99.90
15103;DHT22;7652;53.584;9.998;2023-05-07T07:35:06;11.10;99.90
15103;DHT22;7652;53.584;9.998;2023-05-07T07:38:28;11.10;99.90
15103;DHT22;7652;53.584;9.998;2023-05-07T07:41:50;11.00;99.90
15103;DHT22;7652;53.584;9.998;2023-05-07T07:45:11;11.10;99.90
15103;DHT22;7652;53.584;9.998;2023-05-07T07:48:33;11.10;99.90
15103;DHT22;7652;53.584;9.998;2023-05-07T07:51:56;11.20;99.90
15103;DHT22;7652;53.584;9.998;2023-05-07T07:55:20;11.30;99.90
15103;DHT22;7652;53.584;9.998;2023-05-07T07:58:43;11.30;99.90
15103;DHT22;7652;53.584;9.998;2023-05-07T08:02:05;11.50;99.90
15103;DHT22;7652;53.584;9.998;2023-05-07T08:05:27;11.50;99.90
15103;DHT22;7652;53.584;9.998;2023-05-07T08:08:50;11.40;99.90
15103;DHT22;7652;53.584;9.998;2023-05-07T08:12:11;11.50;99.90
15103;DHT22;7652;53.584;9.998;2023-05-07T08:15:33;11.60;99.90
15103;DHT22;7652;53.584;9.998;2023-05-07T08:18:54;11.70;99.90
15103;DHT22;7652;53.584;9.998;2023-05-07T08:22:16;11.60;99.90
15103;DHT22;7652;53.584;9.998;2023-05-07T08:25:40;11.50;99.90
15103;DHT22;7652;53.584;9.998;2023-05-07T08:29:02;11.30;99.90
15103;DHT22;7652;53.584;9.998;2023-05-07T08:32:24;11.40;99.90
15103;DHT22;7652;53.584;9.998;2023-05-07T08:35:45;11.50;99.90
15103;DHT22;7652;53.584;9.998;2023-05-07T08:39:07;11.60;99.90
15103;DHT22;7652;53.584;9.998;2023-05-07T08:42:31;11.70;99.90
15103;DHT22;7652;53.584;9.998;2023-05-07T08:45:55;11.70;99.90
15103;DHT22;7652;53.584;9.998;2023-05-07T08:49:19;11.70;99.90
15103;DHT22;7652;53.584;9.998;2023-05-07T08:52:40;11.70;99.90
15103;DHT22;7652;53.584;9.998;2023-05-07T08:56:02;11.80;99.90
15103;DHT22;7652;53.584;9.998;2023-05-07T08:59:26;11.70;99.90
15103;DHT22;7652;53.584;9.998;2023-05-07T09:02:47;11.70;99.90
15103;DHT22;7652;53.584;9.998;2023-05-07T09:06:08;11.70;99.90
15103;DHT22;7652;53.584;9.998;2023-05-07T09:09:30;11.80;99.90
15103;DHT22;7652;53.584;9.998;2023-05-07T09:12:53;11.90;99.90
15103;DHT22;7652;53.584;9.998;2023-05-07T09:16:16;12.00;99.90
15103;DHT22;7652;53.584;9.998;2023-05-07T09:19:37;12.20;99.90
15103;DHT22;7652;53.584;9.998;2023-05-07T09:22:59;12.30;99.90
15103;DHT22;7652;53.584;9.998;2023-05-07T09:26:21;12.30;99.90
15103;DHT22;7652;53.584;9.998;2023-05-07T09:29:43;12.30;99.90
15103;DHT22;7652;53.584;9.998;2023-05-07T09:33:06;12.30;99.90
15103;DHT22;7652;53.584;9.998;2023-05-07T09:36:27;12.30;99.90
15103;DHT22;7652;53.584;9.998;2023-05-07T09:39:49;12.30;99.90
15103;DHT22;7652;53.584;9.998;2023-05-07T09:43:13;12.30;99.90
15103;DHT22;7652;53.584;9.998;2023-05-07T09:46:36;12.40;99.90
15103;DHT22;7652;53.584;9.998;2023-05-07T09:50:02;12.60;99.90
15103;DHT22;7652;53.584;9.998;2023-05-07T09:53:27;12.70;99.90
15103;DHT22;7652;53.584;9.998;2023-05-07T09:56:50;12.60;99.90
15103;DHT22;7652;53.584;9.998;2023-05-07T10:00:14;12.60;99.90
15103;DHT22;7652;53.584;9.998;2023-05-07T10:03:36;12.40;99.90
15103;DHT22;7652;53.584;9.998;2023-05-07T10:07:00;12.50;99.90
15103;DHT22;7652;53.584;9.998;2023-05-07T10:10:22;12.60;99.90
15103;DHT22;7652;53.584;9.998;2023-05-07T10:13:46;12.70;99.90
15103;DHT22;7652;53.584;9.998;2023-05-07T10:17:09;12.80;99.90
15103;DHT22;7652;53.584;9.998;2023-05-07T10:20:33;12.70;99.90
15103;DHT22;7652;53.584;9.998;2023-05-07T10:23:59;12.70;99.90
15103;DHT22;7652;53.584;9.998;2023-05-07T10:27:22;12.70;99.90
15103;DHT22;7652;53.584;9.998;2023-05-07T10:30:53;12.80;99.90
15103;DHT22;7652;53.584;9.998;2023-05-07T10:34:27;12.70;99.90
15103;DHT22;7652;53.584;9.998;2023-05-07T10:37:49;12.80;99.90
15103;DHT22;7652;53.584;9.998;2023-05-07T10:41:12;12.80;99.90
15103;DHT22;7652;53.584;9.998;2023-05-07T10:44:35;12.80;99.90
15103;DHT22;7652;53.584;9.998;2023-05-07T10:48:10;12.80;99.90
15103;DHT22;7652;53.584;9.998;2023-05-07T10:52:11;12.70;99.90
15103;DHT22;7652;53.584;9.998;2023-05-07T10:55:32;12.80;99.90
15103;DHT22;7652;53.584;9.998;2023-05-07T10:58:56;12.80;99.90
15103;DHT22;7652;53.584;9.998;2023-05-07T11:02:17;12.90;99.90
15103;DHT22;7652;53.584;9.998;2023-05-07T11:05:38;13.10;99.90
15103;DHT22;7652;53.584;9.998;2023-05-07T11:09:00;13.20;99.90
15103;DHT22;7652;53.584;9.998;2023-05-07T11:16:22;13.20;99.90
15103;DHT22;7652;53.584;9.998;2023-05-07T11:19:50;13.20;99.90
15103;DHT22;7652;53.584;9.998;2023-05-07T11:27:08;13.90;99.90
15103;DHT22;7652;53.584;9.998;2023-05-07T11:30:30;14.10;99.90
15103;DHT22;7652;53.584;9.998;2023-05-07T11:33:54;14.20;99.90
15103;DHT22;7652;53.584;9.998;2023-05-07T11:37:17;14.30;99.90
15103;DHT22;7652;53.584;9.998;2023-05-07T11:40:49;14.50;99.90
15103;DHT22;7652;53.584;9.998;2023-05-07T11:44:10;14.60;99.90
15103;DHT22;7652;53.584;9.998;2023-05-07T11:47:32;14.70;99.90
15103;DHT22;7652;53.584;9.998;2023-05-07T11:51:00;14.90;99.90
15103;DHT22;7652;53.584;9.998;2023-05-07T11:54:22;15.00;99.90
15103;DHT22;7652;53.584;9.998;2023-05-07T11:57:44;15.00;99.90
15103;DHT22;7652;53.584;9.998;2023-05-07T12:01:07;15.20;99.90
15103;DHT22;7652;53.584;9.998;2023-05-07T12:04:30;15.10;99.90
15103;DHT22;7652;53.584;9.998;2023-05-07T12:07:57;15.20;99.90
15103;DHT22;7652;53.584;9.998;2023-05-07T12:11:23;15.30;99.90
15103;DHT22;7652;53.584;9.998;2023-05-07T12:14:45;15.80;99.90
15103;DHT22;7652;53.584;9.998;2023-05-07T12:18:07;16.10;99.90
15103;DHT22;7652;53.584;9.998;2023-05-07T12:21:29;16.00;99.90
15103;DHT22;7652;53.584;9.998;2023-05-07T12:24:58;15.90;99.90
15103;DHT22;7652;53.584;9.998;2023-05-07T12:28:20;16.00;99.90
15103;DHT22;7652;53.584;9.998;2023-05-07T12:31:41;16.00;99.90
15103;DHT22;7652;53.584;9.998;2023-05-07T12:35:06;16.10;99.90
15103;DHT22;7652;53.584;9.998;2023-05-07T12:38:37;16.20;99.90
15103;DHT22;7652;53.584;9.998;2023-05-07T12:42:00;16.10;99.90
15103;DHT22;7652;53.584;9.998;2023-05-07T12:45:21;16.10;99.90
15103;DHT22;7652;53.584;9.998;2023-05-07T12:48:44;16.10;99.90
15103;DHT22;7652;53.584;9.998;2023-05-07T12:52:06;16.30;99.90
15103;DHT22;7652;53.584;9.998;2023-05-07T12:55:29;16.40;99.90
15103;DHT22;7652;53.584;9.998;2023-05-07T12:58:58;16.30;99.90
15103;DHT22;7652;53.584;9.998;2023-05-07T13:02:20;16.50;99.90
15103;DHT22;7652;53.584;9.998;2023-05-07T13:05:41;16.90;99.90
15103;DHT22;7652;53.584;9.998;2023-05-07T13:09:03;17.10;99.90
15103;DHT22;7652;53.584;9.998;2023-05-07T13:12:26;17.00;99.90
15103;DHT22;7652;53.584;9.998;2023-05-07T13:15:48;17.10;99.90
15103;DHT22;7652;53.584;9.998;2023-05-07T13:19:10;17.20;99.90
15103;DHT22;7652;53.584;9.998;2023-05-07T13:22:32;17.10;99.90
15103;DHT22;7652;53.584;9.998;2023-05-07T13:25:53;17.10;99.90
15103;DHT22;7652;53.584;9.998;2023-05-07T13:29:16;17.10;99.90
15103;DHT22;7652;53.584;9.998;2023-05-07T13:32:39;16.80;99.90
15103;DHT22;7652;53.584;9.998;2023-05-07T13:36:02;16.80;99.90
15103;DHT22;7652;53.584;9.998;2023-05-07T13:39:26;16.80;99.90
15103;DHT22;7652;53.584;9.998;2023-05-07T13:42:49;16.70;99.90
15103;DHT22;7652;53.584;9.998;2023-05-07T13:46:11;16.80;99.90
15103;DHT22;7652;53.584;9.998;2023-05-07T13:49:34;16.90;99.90
15103;DHT22;7652;53.584;9.998;2023-05-07T13:52:55;16.80;99.90
15103;DHT22;7652;53.584;9.998;2023-05-07T13:56:17;17.00;99.90
15103;DHT22;7652;53.584;9.998;2023-05-07T13:59:40;17.00;99.90
15103;DHT22;7652;53.584;9.998;2023-05-07T14:03:03;16.90;99.90
15103;DHT22;7652;53.584;9.998;2023-05-07T14:06:27;17.00;99.90
15103;DHT22;7652;53.584;9.998;2023-05-07T14:09:48;17.00;99.90
15103;DHT22;7652;53.584;9.998;2023-05-07T14:13:10;17.20;99.90
15103;DHT22;7652;53.584;9.998;2023-05-07T14:16:32;17.20;99.90
15103;DHT22;7652;53.584;9.998;2023-05-07T14:19:54;17.20;99.90
15103;DHT22;7652;53.584;9.998;2023-05-07T14:23:17;17.30;99.90
15103;DHT22;7652;53.584;9.998;2023-05-07T14:26:39;17.20;99.90
15103;DHT22;7652;53.584;9.998;2023-05-07T14:30:01;17.30;99.90
15103;DHT22;7652;53.584;9.998;2023-05-07T14:33:22;17.10;99.90
15103;DHT22;7652;53.584;9.998;2023-05-07T14:36:43;17.20;99.90
15103;DHT22;7652;53.584;9.998;2023-05-07T14:40:08;17.40;99.90
15103;DHT22;7652;53.584;9.998;2023-05-07T14:43:30;17.50;99.90
15103;DHT22;7652;53.584;9.998;2023-05-07T14:46:51;17.50;99.90
15103;DHT22;7652;53.584;9.998;2023-05-07T14:50:12;17.50;99.90
15103;DHT22;7652;53.584;9.998;2023-05-07T14:53:34;17.50;99.90
15103;DHT22;7652;53.584;9.998;2023-05-07T14:56:57;17.30;99.90
15103;DHT22;7652;53.584;9.998;2023-05-07T15:00:19;17.50;99.90
15103;DHT22;7652;53.584;9.998;2023-05-07T15:03:40;17.50;99.90
15103;DHT22;7652;53.584;9.998;2023-05-07T15:07:02;17.30;99.90
15103;DHT22;7652;53.584;9.998;2023-05-07T15:10:23;17.30;99.90
15103;DHT22;7652;53.584;9.998;2023-05-07T15:13:46;17.20;99.90
15103;DHT22;7652;53.584;9.998;2023-05-07T15:17:07;17.00;99.90
15103;DHT22;7652;53.584;9.998;2023-05-07T15:20:29;17.00;99.90
15103;DHT22;7652;53.584;9.998;2023-05-07T15:23:50;17.10;99.90
15103;DHT22;7652;53.584;9.998;2023-05-07T15:27:11;17.10;99.90
15103;DHT22;7652;53.584;9.998;2023-05-07T15:30:34;17.00;99.90
15103;DHT22;7652;53.584;9.998;2023-05-07T15:33:56;16.90;99.90
15103;DHT22;7652;53.584;9.998;2023-05-07T15:37:17;17.00;99.90
15103;DHT22;7652;53.584;9.998;2023-05-07T15:40:38;16.90;99.90
15103;DHT22;7652;53.584;9.998;2023-05-07T15:44:02;16.90;99.90
15103;DHT22;7652;53.584;9.998;2023-05-07T15:47:25;16.80;99.90
15103;DHT22;7652;53.584;9.998;2023-05-07T15:50:46;16.70;99.90
15103;DHT22;7652;53.584;9.998;2023-05-07T15:54:07;16.80;99.90
15103;DHT22;7652;53.584;9.998;2023-05-07T15:57:29;16.80;99.90
15103;DHT22;7652;53.584;9.998;2023-05-07T16:00:51;16.90;99.90
15103;DHT22;7652;53.584;9.998;2023-05-07T16:04:14;16.80;99.90
15103;DHT22;7652;53.584;9.998;2023-05-07T16:07:36;16.80;99.90
15103;DHT22;7652;53.584;9.998;2023-05-07T16:10:57;16.80;99.90
15103;DHT22;7652;53.584;9.998;2023-05-07T16:14:19;16.80;99.90
15103;DHT22;7652;53.584;9.998;2023-05-07T16:17:41;16.70;99.90
15103;DHT22;7652;53.584;9.998;2023-05-07T16:21:05;16.70;99.90
15103;DHT22;7652;53.584;9.998;2023-05-07T16:24:26;16.70;99.90
15103;DHT22;7652;53.584;9.998;2023-05-07T16:27:48;16.70;99.90
15103;DHT22;7652;53.584;9.998;2023-05-07T16:31:09;16.70;99.90
15103;DHT22;7652;53.584;9.998;2023-05-07T16:34:31;16.80;99.90
15103;DHT22;7652;53.584;9.998;2023-05-07T16:37:53;16.80;99.90
15103;DHT22;7652;53.584;9.998;2023-05-07T16:41:15;16.80;99.90
15103;DHT22;7652;53.584;9.998;2023-05-07T16:44:36;16.80;99.90
15103;DHT22;7652;53.584;9.998;2023-05-07T16:47:58;16.80;99.90
15103;DHT22;7652;53.584;9.998;2023-05-07T16:51:20;16.80;99.90
15103;DHT22;7652;53.584;9.998;2023-05-07T16:54:43;16.80;99.90
15103;DHT22;7652;53.584;9.998;2023-05-07T16:58:05;16.80;99.90
15103;DHT22;7652;53.584;9.998;2023-05-07T17:01:27;16.90;99.90
15103;DHT22;7652;53.584;9.998;2023-05-07T17:04:51;16.90;99.90
15103;DHT22;7652;53.584;9.998;2023-05-07T17:08:13;16.90;99.90
15103;DHT22;7652;53.584;9.998;2023-05-07T17:11:36;16.90;99.90
15103;DHT22;7652;53.584;9.998;2023-05-07T17:14:57;16.90;99.90
15103;DHT22;7652;53.584;9.998;2023-05-07T17:18:19;16.90;99.90
15103;DHT22;7652;53.584;9.998;2023-05-07T17:21:40;17.00;99.90
15103;DHT22;7652;53.584;9.998;2023-05-07T17:25:01;16.90;99.90
15103;DHT22;7652;53.584;9.998;2023-05-07T17:28:25;16.90;99.90
15103;DHT22;7652;53.584;9.998;2023-05-07T17:31:46;16.90;99.90
15103;DHT22;7652;53.584;9.998;2023-05-07T17:35:08;16.90;99.90
15103;DHT22;7652;53.584;9.998;2023-05-07T17:38:29;16.90;99.90
15103;DHT22;7652;53.584;9.998;2023-05-07T17:41:51;17.00;99.90
15103;DHT22;7652;53.584;9.998;2023-05-07T17:45:15;16.90;99.90
15103;DHT22;7652;53.584;9.998;2023-05-07T17:48:36;16.80;99.90
15103;DHT22;7652;53.584;9.998;2023-05-07T17:51:58;16.80;99.90
15103;DHT22;7652;53.584;9.998;2023-05-07T17:55:19;16.60;99.90
15103;DHT22;7652;53.584;9.998;2023-05-07T17:58:41;16.60;99.90
15103;DHT22;7652;53.584;9.998;2023-05-07T18:02:19;16.50;99.90
15103;DHT22;7652;53.584;9.998;2023-05-07T18:05:41;16.40;99.90
15103;DHT22;7652;53.584;9.998;2023-05-07T18:09:03;16.40;99.90
15103;DHT22;7652;53.584;9.998;2023-05-07T18:12:24;16.30;99.90
15103;DHT22;7652;53.584;9.998;2023-05-07T18:15:47;16.30;99.90
15103;DHT22;7652;53.584;9.998;2023-05-07T18:19:09;16.20;99.90
15103;DHT22;7652;53.584;9.998;2023-05-07T18:22:31;16.10;99.90
15103;DHT22;7652;53.584;9.998;2023-05-07T18:25:52;16.00;99.90
15103;DHT22;7652;53.584;9.998;2023-05-07T18:29:14;15.90;99.90
15103;DHT22;7652;53.584;9.998;2023-05-07T18:32:35;15.90;99.90
15103;DHT22;7652;53.584;9.998;2023-05-07T18:35:59;15.90;99.90
15103;DHT22;7652;53.584;9.998;2023-05-07T18:39:20;15.80;99.90
15103;DHT22;7652;53.584;9.998;2023-05-07T18:42:42;15.80;99.90
15103;DHT22;7652;53.584;9.998;2023-05-07T18:46:03;15.70;99.90
15103;DHT22;7652;53.584;9.998;2023-05-07T18:49:25;15.50;99.90
15103;DHT22;7652;53.584;9.998;2023-05-07T18:52:48;15.50;99.90
15103;DHT22;7652;53.584;9.998;2023-05-07T18:56:09;15.40;99.90
15103;DHT22;7652;53.584;9.998;2023-05-07T18:59:31;15.40;99.90
15103;DHT22;7652;53.584;9.998;2023-05-07T19:02:52;15.30;99.90
15103;DHT22;7652;53.584;9.998;2023-05-07T19:06:14;15.30;99.90
15103;DHT22;7652;53.584;9.998;2023-05-07T19:09:37;15.20;99.90
15103;DHT22;7652;53.584;9.998;2023-05-07T19:13:07;15.10;99.90
15103;DHT22;7652;53.584;9.998;2023-05-07T19:16:28;15.10;99.90
15103;DHT22;7652;53.584;9.998;2023-05-07T19:19:50;15.00;99.90
15103;DHT22;7652;53.584;9.998;2023-05-07T19:23:11;15.10;99.90
15103;DHT22;7652;53.584;9.998;2023-05-07T19:26:34;15.00;99.90
15103;DHT22;7652;53.584;9.998;2023-05-07T19:29:56;14.90;99.90
15103;DHT22;7652;53.584;9.998;2023-05-07T19:33:17;14.80;99.90
15103;DHT22;7652;53.584;9.998;2023-05-07T19:36:39;14.70;99.90
15103;DHT22;7652;53.584;9.998;2023-05-07T19:40:01;14.60;99.90
15103;DHT22;7652;53.584;9.998;2023-05-07T19:43:25;14.50;99.90
15103;DHT22;7652;53.584;9.998;2023-05-07T19:46:47;14.50;99.90
15103;DHT22;7652;53.584;9.998;2023-05-07T19:50:09;14.40;99.90
15103;DHT22;7652;53.584;9.998;2023-05-07T19:53:30;14.40;99.90
15103;DHT22;7652;53.584;9.998;2023-05-07T19:56:52;14.30;99.90
15103;DHT22;7652;53.584;9.998;2023-05-07T20:00:15;14.30;99.90
15103;DHT22;7652;53.584;9.998;2023-05-07T20:03:36;14.30;99.90
15103;DHT22;7652;53.584;9.998;2023-05-07T20:06:58;14.20;99.90
15103;DHT22;7652;53.584;9.998;2023-05-07T20:10:20;14.10;99.90
15103;DHT22;7652;53.584;9.998;2023-05-07T20:13:42;14.10;99.90
15103;DHT22;7652;53.584;9.998;2023-05-07T20:17:04;14.00;99.90
15103;DHT22;7652;53.584;9.998;2023-05-07T20:20:26;13.90;99.90
15103;DHT22;7652;53.584;9.998;2023-05-07T20:23:48;13.90;99.90
15103;DHT22;7652;53.584;9.998;2023-05-07T20:27:10;13.90;99.90
15103;DHT22;7652;53.584;9.998;2023-05-07T20:30:31;13.80;99.90
15103;DHT22;7652;53.584;9.998;2023-05-07T20:33:54;13.80;99.90
15103;DHT22;7652;53.584;9.998;2023-05-07T20:37:16;13.70;99.90
15103;DHT22;7652;53.584;9.998;2023-05-07T20:40:37;13.70;99.90
15103;DHT22;7652;53.584;9.998;2023-05-07T20:43:59;13.60;99.90
15103;DHT22;7652;53.584;9.998;2023-05-07T20:47:21;13.60;99.90
15103;DHT22;7652;53.584;9.998;2023-05-07T20:50:43;13.60;99.90
15103;DHT22;7652;53.584;9.998;2023-05-07T20:54:05;13.50;99.90
15103;DHT22;7652;53.584;9.998;2023-05-07T20:57:27;13.50;99.90
15103;DHT22;7652;53.584;9.998;2023-05-07T21:00:49;13.40;99.90
15103;DHT22;7652;53.584;9.998;2023-05-07T21:04:11;13.40;99.90
15103;DHT22;7652;53.584;9.998;2023-05-07T21:07:34;13.40;99.90
15103;DHT22;7652;53.584;9.998;2023-05-07T21:10:55;13.30;99.90
15103;DHT22;7652;53.584;9.998;2023-05-07T21:14:17;13.20;99.90
15103;DHT22;7652;53.584;9.998;2023-05-07T21:17:39;13.10;99.90
15103;DHT22;7652;53.584;9.998;2023-05-07T21:21:00;13.00;99.90
15103;DHT22;7652;53.584;9.998;2023-05-07T21:24:23;13.00;99.90
15103;DHT22;7652;53.584;9.998;2023-05-07T21:27:45;13.00;99.90
15103;DHT22;7652;53.584;9.998;2023-05-07T21:31:06;13.00;99.90
15103;DHT22;7652;53.584;9.998;2023-05-07T21:34:27;12.90;99.90
15103;DHT22;7652;53.584;9.998;2023-05-07T21:37:49;12.80;99.90
15103;DHT22;7652;53.584;9.998;2023-05-07T21:41:12;12.80;99.90
15103;DHT22;7652;53.584;9.998;2023-05-07T21:44:33;12.80;99.90
15103;DHT22;7652;53.584;9.998;2023-05-07T21:47:54;12.80;99.90
15103;DHT22;7652;53.584;9.998;2023-05-07T21:51:16;12.80;99.90